Aérodrome :
LOGIN :

S'inscrire | Disclaimer

   EN    FR    IT 

 










Légende :    VFR   VFR Marginal   IFR   IFR Intensif   IFR Très Intensif
Visi : 
Plafond : 
>= 8 km
>= 3000ft
5 à 8 km
1000 à 3000 ft
1500m à 5 km
500 à 1000 ft
800 à 1500m
200 à 500 ft
< 800m
< 200 ft
Symboles :   Orages  Brouillard  Fortes neiges  Fortes précipitations  Vent > 20 kt
SIGMETs :   Divers  Orages  Givrage  Turbulence  Onde Orograph.  Cendres Volcan.







- Altitude de l'aérodrome : 1416 ft
- Code IATA : ZRH


LSZH - Zurich

DERNIER METAR :
  • 251120Z 03015KT 9999 BKN027 M06/M13 Q1018 R88/410195 NOSIG

METARs EXPIRÉS :
  • 251050Z 05014KT 020V080 9999 BKN028 M06/M13 Q1018 R88/410195 NOSIG
  • 251020Z 03014KT 9999 FEW023 BKN028 M06/M13 Q1018 R88/410195 NOSIG
  • 250950Z 03009KT 350V060 7000 -SN SCT023 BKN027 M07/M13 Q1018 R88/410195 NOSIG
  • 250920Z 04010KT 010V080 7000 -SN FEW015 BKN025 M07/M12 Q1018 R88/410195 NOSIG
  • 250850Z 04012G23KT 010V070 7000 -SN FEW015 BKN023 M07/M12 Q1018 R88/410195 NOSIG

TAF TAF LSZH
Valide du 25 à 09h jusqu'au 26 à 15h UTC


250825Z 2509/2615 05010KT 9999 BKN025 TXM03/2512Z TNM11/2606Z TXM05/2612Z
TEMPO 2509/2521 05015G29KT
PROB30
TEMPO 2509/2512 -SN
PROB40 2513/2520 CAVOK
PROB40 2609/2612 CAVOK
TEMPO 2609/2615 05015G29KT
ATIS : +41 43 816 2295 (DEP) +41 43 816 2294 (ARR)
Pas de NOTAMs connus pour ce terrain.



MET'MAP, la Météo Aéronautique d'un coup d'oeil ! - Copyright ORBIFLY Décembre 2007 - Disclaimer

ORBIFLY MET'MAP TEAM :

Programmation & Développement : Alexandra Zaïnal
Conception & Développement : Baudouin d'Aumeries
Co-Programmation & Développement : Marc-Olivier Méhu
Soutien technique & logistique : Manuel Goepfert

Contact : metmap@orbifly.com




SOURCES & CREDITS :

   NOAA